sensor_id;sensor_type;location;lat;lon;timestamp;temperature;humidity
52669;DHT22;59898;52.786;6.892;2023-07-13T00:00:54;18.00;64.80
52669;DHT22;59898;52.786;6.892;2023-07-13T00:04:18;18.00;65.20
52669;DHT22;59898;52.786;6.892;2023-07-13T00:07:39;18.00;65.50
52669;DHT22;59898;52.786;6.892;2023-07-13T00:11:03;17.80;65.90
52669;DHT22;59898;52.786;6.892;2023-07-13T00:14:25;17.70;66.90
52669;DHT22;59898;52.786;6.892;2023-07-13T00:17:46;17.60;66.40
52669;DHT22;59898;52.786;6.892;2023-07-13T00:21:07;17.60;66.60
52669;DHT22;59898;52.786;6.892;2023-07-13T00:24:28;17.50;67.20
52669;DHT22;59898;52.786;6.892;2023-07-13T00:27:49;17.50;67.30
52669;DHT22;59898;52.786;6.892;2023-07-13T00:31:12;17.50;67.40
52669;DHT22;59898;52.786;6.892;2023-07-13T00:34:33;17.50;67.70
52669;DHT22;59898;52.786;6.892;2023-07-13T00:37:53;17.50;67.60
52669;DHT22;59898;52.786;6.892;2023-07-13T00:41:14;17.50;67.70
52669;DHT22;59898;52.786;6.892;2023-07-13T00:44:35;17.50;68.20
52669;DHT22;59898;52.786;6.892;2023-07-13T00:47:56;17.40;68.70
52669;DHT22;59898;52.786;6.892;2023-07-13T00:51:21;17.30;68.80
52669;DHT22;59898;52.786;6.892;2023-07-13T00:54:45;17.20;70.00
52669;DHT22;59898;52.786;6.892;2023-07-13T00:58:06;17.20;69.70
52669;DHT22;59898;52.786;6.892;2023-07-13T01:01:27;17.20;69.80
52669;DHT22;59898;52.786;6.892;2023-07-13T01:04:48;17.20;69.80
52669;DHT22;59898;52.786;6.892;2023-07-13T01:08:08;17.30;69.90
52669;DHT22;59898;52.786;6.892;2023-07-13T01:11:29;17.30;70.20
52669;DHT22;59898;52.786;6.892;2023-07-13T01:14:57;17.40;70.40
52669;DHT22;59898;52.786;6.892;2023-07-13T01:18:24;17.30;70.50
52669;DHT22;59898;52.786;6.892;2023-07-13T01:21:50;17.30;70.70
52669;DHT22;59898;52.786;6.892;2023-07-13T01:25:11;17.30;71.10
52669;DHT22;59898;52.786;6.892;2023-07-13T01:28:31;17.20;71.60
52669;DHT22;59898;52.786;6.892;2023-07-13T01:31:57;17.20;71.60
52669;DHT22;59898;52.786;6.892;2023-07-13T01:35:17;17.30;71.60
52669;DHT22;59898;52.786;6.892;2023-07-13T01:38:38;17.30;71.80
52669;DHT22;59898;52.786;6.892;2023-07-13T01:41:59;17.40;72.00
52669;DHT22;59898;52.786;6.892;2023-07-13T01:45:20;17.40;72.30
52669;DHT22;59898;52.786;6.892;2023-07-13T01:48:40;17.40;72.10
52669;DHT22;59898;52.786;6.892;2023-07-13T01:52:01;17.40;72.00
52669;DHT22;59898;52.786;6.892;2023-07-13T01:55:22;17.40;72.30
52669;DHT22;59898;52.786;6.892;2023-07-13T01:58:42;17.40;72.90
52669;DHT22;59898;52.786;6.892;2023-07-13T02:02:03;17.50;72.80
52669;DHT22;59898;52.786;6.892;2023-07-13T02:05:24;17.50;72.50
52669;DHT22;59898;52.786;6.892;2023-07-13T02:08:45;17.50;72.90
52669;DHT22;59898;52.786;6.892;2023-07-13T02:12:06;17.50;72.90
52669;DHT22;59898;52.786;6.892;2023-07-13T02:15:27;17.40;73.10
52669;DHT22;59898;52.786;6.892;2023-07-13T02:18:47;17.30;73.30
52669;DHT22;59898;52.786;6.892;2023-07-13T02:22:08;17.30;73.80
52669;DHT22;59898;52.786;6.892;2023-07-13T02:25:29;17.30;73.90
52669;DHT22;59898;52.786;6.892;2023-07-13T02:28:49;17.20;74.90
52669;DHT22;59898;52.786;6.892;2023-07-13T02:32:10;17.20;74.50
52669;DHT22;59898;52.786;6.892;2023-07-13T02:35:31;17.20;74.60
52669;DHT22;59898;52.786;6.892;2023-07-13T02:38:51;17.20;74.80
52669;DHT22;59898;52.786;6.892;2023-07-13T02:42:12;17.20;74.80
52669;DHT22;59898;52.786;6.892;2023-07-13T02:45:32;17.20;75.00
52669;DHT22;59898;52.786;6.892;2023-07-13T02:48:53;17.20;74.90
52669;DHT22;59898;52.786;6.892;2023-07-13T02:52:14;17.20;75.00
52669;DHT22;59898;52.786;6.892;2023-07-13T02:55:34;17.20;75.20
52669;DHT22;59898;52.786;6.892;2023-07-13T02:58:55;17.20;75.30
52669;DHT22;59898;52.786;6.892;2023-07-13T03:02:15;17.20;75.40
52669;DHT22;59898;52.786;6.892;2023-07-13T03:05:37;17.20;75.40
52669;DHT22;59898;52.786;6.892;2023-07-13T03:08:58;17.20;75.60
52669;DHT22;59898;52.786;6.892;2023-07-13T03:12:20;17.20;76.30
52669;DHT22;59898;52.786;6.892;2023-07-13T03:15:40;17.00;76.20
52669;DHT22;59898;52.786;6.892;2023-07-13T03:19:01;17.00;76.20
52669;DHT22;59898;52.786;6.892;2023-07-13T03:22:22;17.00;76.80
52669;DHT22;59898;52.786;6.892;2023-07-13T03:25:42;17.00;76.50
52669;DHT22;59898;52.786;6.892;2023-07-13T03:29:03;16.90;77.40
52669;DHT22;59898;52.786;6.892;2023-07-13T03:32:24;16.90;76.90
52669;DHT22;59898;52.786;6.892;2023-07-13T03:35:44;16.80;77.20
52669;DHT22;59898;52.786;6.892;2023-07-13T03:39:05;16.80;77.70
52669;DHT22;59898;52.786;6.892;2023-07-13T03:42:28;16.80;77.40
52669;DHT22;59898;52.786;6.892;2023-07-13T03:45:49;16.80;77.20
52669;DHT22;59898;52.786;6.892;2023-07-13T03:49:10;16.80;76.90
52669;DHT22;59898;52.786;6.892;2023-07-13T03:52:30;16.90;76.80
52669;DHT22;59898;52.786;6.892;2023-07-13T03:55:51;16.90;77.00
52669;DHT22;59898;52.786;6.892;2023-07-13T03:59:12;16.90;76.80
52669;DHT22;59898;52.786;6.892;2023-07-13T04:02:32;16.80;77.00
52669;DHT22;59898;52.786;6.892;2023-07-13T04:05:54;16.80;77.00
52669;DHT22;59898;52.786;6.892;2023-07-13T04:09:15;16.80;77.10
52669;DHT22;59898;52.786;6.892;2023-07-13T04:12:36;16.70;77.40
52669;DHT22;59898;52.786;6.892;2023-07-13T04:15:56;16.70;77.40
52669;DHT22;59898;52.786;6.892;2023-07-13T04:19:17;16.70;77.40
52669;DHT22;59898;52.786;6.892;2023-07-13T04:22:38;16.80;77.40
52669;DHT22;59898;52.786;6.892;2023-07-13T04:25:58;16.80;77.40
52669;DHT22;59898;52.786;6.892;2023-07-13T04:29:19;16.80;77.50
52669;DHT22;59898;52.786;6.892;2023-07-13T04:32:39;16.70;77.60
52669;DHT22;59898;52.786;6.892;2023-07-13T04:36:00;16.70;78.00
52669;DHT22;59898;52.786;6.892;2023-07-13T04:39:22;16.70;78.00
52669;DHT22;59898;52.786;6.892;2023-07-13T04:42:43;16.70;77.70
52669;DHT22;59898;52.786;6.892;2023-07-13T04:46:08;16.70;77.80
52669;DHT22;59898;52.786;6.892;2023-07-13T04:49:29;16.70;78.00
52669;DHT22;59898;52.786;6.892;2023-07-13T04:52:51;16.70;78.00
52669;DHT22;59898;52.786;6.892;2023-07-13T04:56:12;16.70;77.90
52669;DHT22;59898;52.786;6.892;2023-07-13T04:59:33;16.80;78.00
52669;DHT22;59898;52.786;6.892;2023-07-13T05:02:55;16.70;78.00
52669;DHT22;59898;52.786;6.892;2023-07-13T05:06:16;16.80;77.90
52669;DHT22;59898;52.786;6.892;2023-07-13T05:09:36;16.70;78.00
52669;DHT22;59898;52.786;6.892;2023-07-13T05:12:57;16.70;78.40
52669;DHT22;59898;52.786;6.892;2023-07-13T05:16:19;16.60;78.20
52669;DHT22;59898;52.786;6.892;2023-07-13T05:19:40;16.60;78.60
52669;DHT22;59898;52.786;6.892;2023-07-13T05:23:00;16.60;78.50
52669;DHT22;59898;52.786;6.892;2023-07-13T05:26:21;16.60;78.60
52669;DHT22;59898;52.786;6.892;2023-07-13T05:29:42;16.70;78.40
52669;DHT22;59898;52.786;6.892;2023-07-13T05:33:03;16.70;78.40
52669;DHT22;59898;52.786;6.892;2023-07-13T05:36:23;16.70;78.60
52669;DHT22;59898;52.786;6.892;2023-07-13T05:39:44;16.80;78.80
52669;DHT22;59898;52.786;6.892;2023-07-13T05:43:04;16.80;79.00
52669;DHT22;59898;52.786;6.892;2023-07-13T05:46:25;16.80;78.80
52669;DHT22;59898;52.786;6.892;2023-07-13T05:49:46;16.90;79.00
52669;DHT22;59898;52.786;6.892;2023-07-13T05:53:06;17.00;79.00
52669;DHT22;59898;52.786;6.892;2023-07-13T05:56:27;17.00;79.10
52669;DHT22;59898;52.786;6.892;2023-07-13T05:59:48;17.10;79.00
52669;DHT22;59898;52.786;6.892;2023-07-13T06:03:10;17.10;79.00
52669;DHT22;59898;52.786;6.892;2023-07-13T06:06:30;17.20;79.00
52669;DHT22;59898;52.786;6.892;2023-07-13T06:09:51;17.30;78.90
52669;DHT22;59898;52.786;6.892;2023-07-13T06:13:11;17.50;78.50
52669;DHT22;59898;52.786;6.892;2023-07-13T06:16:32;17.70;78.30
52669;DHT22;59898;52.786;6.892;2023-07-13T06:19:53;18.00;77.70
52669;DHT22;59898;52.786;6.892;2023-07-13T06:23:13;18.30;76.80
52669;DHT22;59898;52.786;6.892;2023-07-13T06:26:34;18.50;76.10
52669;DHT22;59898;52.786;6.892;2023-07-13T06:29:54;18.80;75.40
52669;DHT22;59898;52.786;6.892;2023-07-13T06:33:15;18.80;75.10
52669;DHT22;59898;52.786;6.892;2023-07-13T06:36:36;18.80;75.20
52669;DHT22;59898;52.786;6.892;2023-07-13T06:39:58;18.70;75.20
52669;DHT22;59898;52.786;6.892;2023-07-13T06:43:19;18.80;75.20
52669;DHT22;59898;52.786;6.892;2023-07-13T06:46:41;18.80;75.20
52669;DHT22;59898;52.786;6.892;2023-07-13T06:50:01;18.90;74.80
52669;DHT22;59898;52.786;6.892;2023-07-13T06:53:22;18.90;74.70
52669;DHT22;59898;52.786;6.892;2023-07-13T06:56:43;18.90;75.10
52669;DHT22;59898;52.786;6.892;2023-07-13T07:00:04;19.00;74.80
52669;DHT22;59898;52.786;6.892;2023-07-13T07:03:27;19.10;74.50
52669;DHT22;59898;52.786;6.892;2023-07-13T07:06:47;19.20;74.10
52669;DHT22;59898;52.786;6.892;2023-07-13T07:10:08;19.30;74.20
52669;DHT22;59898;52.786;6.892;2023-07-13T07:13:29;19.40;74.00
52669;DHT22;59898;52.786;6.892;2023-07-13T07:16:50;19.60;73.80
52669;DHT22;59898;52.786;6.892;2023-07-13T07:20:11;19.80;73.10
52669;DHT22;59898;52.786;6.892;2023-07-13T07:23:32;19.70;72.80
52669;DHT22;59898;52.786;6.892;2023-07-13T07:26:52;19.70;72.90
52669;DHT22;59898;52.786;6.892;2023-07-13T07:30:13;19.70;73.00
52669;DHT22;59898;52.786;6.892;2023-07-13T07:33:34;19.70;72.90
52669;DHT22;59898;52.786;6.892;2023-07-13T07:36:56;19.70;72.80
52669;DHT22;59898;52.786;6.892;2023-07-13T07:40:18;19.80;72.60
52669;DHT22;59898;52.786;6.892;2023-07-13T07:43:39;19.90;72.30
52669;DHT22;59898;52.786;6.892;2023-07-13T07:46:59;19.80;72.10
52669;DHT22;59898;52.786;6.892;2023-07-13T07:50:20;19.80;72.20
52669;DHT22;59898;52.786;6.892;2023-07-13T07:53:41;19.80;72.40
52669;DHT22;59898;52.786;6.892;2023-07-13T07:57:02;19.80;72.40
52669;DHT22;59898;52.786;6.892;2023-07-13T08:00:23;19.60;72.60
52669;DHT22;59898;52.786;6.892;2023-07-13T08:03:43;19.50;73.00
52669;DHT22;59898;52.786;6.892;2023-07-13T08:07:04;19.40;73.40
52669;DHT22;59898;52.786;6.892;2023-07-13T08:10:25;19.40;73.60
52669;DHT22;59898;52.786;6.892;2023-07-13T08:13:46;19.40;73.60
52669;DHT22;59898;52.786;6.892;2023-07-13T08:17:07;19.30;73.90
52669;DHT22;59898;52.786;6.892;2023-07-13T08:20:27;19.40;73.90
52669;DHT22;59898;52.786;6.892;2023-07-13T08:23:48;19.50;73.80
52669;DHT22;59898;52.786;6.892;2023-07-13T08:27:12;19.50;73.50
52669;DHT22;59898;52.786;6.892;2023-07-13T08:30:33;19.60;73.60
52669;DHT22;59898;52.786;6.892;2023-07-13T08:33:53;19.90;73.20
52669;DHT22;59898;52.786;6.892;2023-07-13T08:37:14;20.10;72.30
52669;DHT22;59898;52.786;6.892;2023-07-13T08:40:35;20.20;71.50
52669;DHT22;59898;52.786;6.892;2023-07-13T08:43:58;20.40;71.20
52669;DHT22;59898;52.786;6.892;2023-07-13T08:47:21;20.60;70.70
52669;DHT22;59898;52.786;6.892;2023-07-13T08:50:57;20.80;69.90
52669;DHT22;59898;52.786;6.892;2023-07-13T08:54:34;20.90;69.10
52669;DHT22;59898;52.786;6.892;2023-07-13T09:05:15;21.50;67.50
52669;DHT22;59898;52.786;6.892;2023-07-13T09:09:01;21.60;67.40
52669;DHT22;59898;52.786;6.892;2023-07-13T09:12:35;21.70;66.40
52669;DHT22;59898;52.786;6.892;2023-07-13T09:16:00;21.40;67.00
52669;DHT22;59898;52.786;6.892;2023-07-13T09:19:26;21.30;67.70
52669;DHT22;59898;52.786;6.892;2023-07-13T09:22:48;21.30;68.00
52669;DHT22;59898;52.786;6.892;2023-07-13T09:26:21;21.20;68.90
52669;DHT22;59898;52.786;6.892;2023-07-13T09:29:47;20.90;68.10
52669;DHT22;59898;52.786;6.892;2023-07-13T09:33:09;20.50;68.70
52669;DHT22;59898;52.786;6.892;2023-07-13T09:36:32;19.90;69.10
52669;DHT22;59898;52.786;6.892;2023-07-13T09:39:53;19.50;67.30
52669;DHT22;59898;52.786;6.892;2023-07-13T09:43:15;19.10;67.80
52669;DHT22;59898;52.786;6.892;2023-07-13T09:46:39;18.80;70.40
52669;DHT22;59898;52.786;6.892;2023-07-13T09:50:09;18.30;72.40
52669;DHT22;59898;52.786;6.892;2023-07-13T09:53:30;17.90;73.70
52669;DHT22;59898;52.786;6.892;2023-07-13T09:57:16;17.60;74.00
52669;DHT22;59898;52.786;6.892;2023-07-13T10:00:37;17.40;73.80
52669;DHT22;59898;52.786;6.892;2023-07-13T10:04:00;17.40;73.60
52669;DHT22;59898;52.786;6.892;2023-07-13T10:07:22;17.40;73.80
52669;DHT22;59898;52.786;6.892;2023-07-13T10:10:43;17.50;74.30
52669;DHT22;59898;52.786;6.892;2023-07-13T10:14:15;17.50;74.10
52669;DHT22;59898;52.786;6.892;2023-07-13T10:17:36;17.40;75.10
52669;DHT22;59898;52.786;6.892;2023-07-13T10:21:14;17.30;75.00
52669;DHT22;59898;52.786;6.892;2023-07-13T10:24:37;17.50;75.30
52669;DHT22;59898;52.786;6.892;2023-07-13T10:28:11;17.70;75.00
52669;DHT22;59898;52.786;6.892;2023-07-13T10:31:36;17.90;75.20
52669;DHT22;59898;52.786;6.892;2023-07-13T10:34:57;18.20;74.90
52669;DHT22;59898;52.786;6.892;2023-07-13T10:38:22;18.40;75.40
52669;DHT22;59898;52.786;6.892;2023-07-13T10:41:46;18.50;74.80
52669;DHT22;59898;52.786;6.892;2023-07-13T10:45:19;18.70;74.50
52669;DHT22;59898;52.786;6.892;2023-07-13T10:48:42;18.90;74.70
52669;DHT22;59898;52.786;6.892;2023-07-13T10:52:04;19.20;74.80
52669;DHT22;59898;52.786;6.892;2023-07-13T11:02:37;19.90;74.00
52669;DHT22;59898;52.786;6.892;2023-07-13T11:06:13;20.10;73.20
52669;DHT22;59898;52.786;6.892;2023-07-13T11:09:40;20.20;73.60
52669;DHT22;59898;52.786;6.892;2023-07-13T11:13:01;20.30;72.30
52669;DHT22;59898;52.786;6.892;2023-07-13T11:19:51;20.50;72.20
52669;DHT22;59898;52.786;6.892;2023-07-13T11:33:53;20.50;71.50
52669;DHT22;59898;52.786;6.892;2023-07-13T11:37:16;20.20;71.70
52669;DHT22;59898;52.786;6.892;2023-07-13T11:40:38;19.90;69.40
52669;DHT22;59898;52.786;6.892;2023-07-13T11:44:26;19.70;68.90
52669;DHT22;59898;52.786;6.892;2023-07-13T11:47:48;19.40;67.90
52669;DHT22;59898;52.786;6.892;2023-07-13T11:51:18;19.30;69.20
52669;DHT22;59898;52.786;6.892;2023-07-13T11:55:00;19.40;69.20
52669;DHT22;59898;52.786;6.892;2023-07-13T11:58:24;19.70;68.60
52669;DHT22;59898;52.786;6.892;2023-07-13T12:01:52;19.90;68.80
52669;DHT22;59898;52.786;6.892;2023-07-13T12:05:16;20.10;69.00
52669;DHT22;59898;52.786;6.892;2023-07-13T12:08:38;20.30;68.90
52669;DHT22;59898;52.786;6.892;2023-07-13T12:12:02;20.40;68.90
52669;DHT22;59898;52.786;6.892;2023-07-13T12:15:28;20.60;68.80
52669;DHT22;59898;52.786;6.892;2023-07-13T12:18:52;20.90;68.40
52669;DHT22;59898;52.786;6.892;2023-07-13T12:22:14;21.30;67.60
52669;DHT22;59898;52.786;6.892;2023-07-13T12:25:36;21.60;66.70
52669;DHT22;59898;52.786;6.892;2023-07-13T12:28:59;21.90;65.80
52669;DHT22;59898;52.786;6.892;2023-07-13T12:32:21;22.20;64.70
52669;DHT22;59898;52.786;6.892;2023-07-13T12:35:50;22.20;64.30
52669;DHT22;59898;52.786;6.892;2023-07-13T12:42:39;22.30;63.70
52669;DHT22;59898;52.786;6.892;2023-07-13T12:46:04;22.30;63.70
52669;DHT22;59898;52.786;6.892;2023-07-13T12:49:29;22.20;64.30
52669;DHT22;59898;52.786;6.892;2023-07-13T12:52:54;22.10;64.70
52669;DHT22;59898;52.786;6.892;2023-07-13T12:56:23;22.10;65.00
52669;DHT22;59898;52.786;6.892;2023-07-13T12:59:44;22.10;65.30
52669;DHT22;59898;52.786;6.892;2023-07-13T13:03:11;22.00;65.90
52669;DHT22;59898;52.786;6.892;2023-07-13T13:06:34;21.90;66.20
52669;DHT22;59898;52.786;6.892;2023-07-13T13:09:56;21.80;66.20
52669;DHT22;59898;52.786;6.892;2023-07-13T13:13:17;21.80;66.40
52669;DHT22;59898;52.786;6.892;2023-07-13T13:16:47;21.90;66.40
52669;DHT22;59898;52.786;6.892;2023-07-13T13:20:18;22.00;65.50
52669;DHT22;59898;52.786;6.892;2023-07-13T13:23:39;22.20;64.70
52669;DHT22;59898;52.786;6.892;2023-07-13T13:27:00;22.30;63.70
52669;DHT22;59898;52.786;6.892;2023-07-13T13:30:20;22.30;62.50
52669;DHT22;59898;52.786;6.892;2023-07-13T13:33:43;22.40;61.80
52669;DHT22;59898;52.786;6.892;2023-07-13T13:37:26;22.50;60.70
52669;DHT22;59898;52.786;6.892;2023-07-13T13:40:46;22.60;57.80
52669;DHT22;59898;52.786;6.892;2023-07-13T13:44:09;22.70;58.00
52669;DHT22;59898;52.786;6.892;2023-07-13T13:47:31;22.80;56.80
52669;DHT22;59898;52.786;6.892;2023-07-13T13:50:53;23.00;56.30
52669;DHT22;59898;52.786;6.892;2023-07-13T13:54:15;23.20;55.00
52669;DHT22;59898;52.786;6.892;2023-07-13T13:57:36;23.30;54.70
52669;DHT22;59898;52.786;6.892;2023-07-13T14:00:57;23.50;54.30
52669;DHT22;59898;52.786;6.892;2023-07-13T14:04:20;23.60;53.20
52669;DHT22;59898;52.786;6.892;2023-07-13T14:07:41;23.70;52.70
52669;DHT22;59898;52.786;6.892;2023-07-13T14:11:02;23.70;52.60
52669;DHT22;59898;52.786;6.892;2023-07-13T14:14:23;23.80;51.90
52669;DHT22;59898;52.786;6.892;2023-07-13T14:17:44;23.80;51.00
52669;DHT22;59898;52.786;6.892;2023-07-13T14:21:13;23.80;49.80
52669;DHT22;59898;52.786;6.892;2023-07-13T14:24:34;23.80;49.40
52669;DHT22;59898;52.786;6.892;2023-07-13T14:27:58;23.80;49.30
52669;DHT22;59898;52.786;6.892;2023-07-13T14:31:28;23.90;49.80
52669;DHT22;59898;52.786;6.892;2023-07-13T14:34:51;23.90;49.60
52669;DHT22;59898;52.786;6.892;2023-07-13T14:38:18;23.90;48.70
52669;DHT22;59898;52.786;6.892;2023-07-13T14:41:40;23.80;49.00
52669;DHT22;59898;52.786;6.892;2023-07-13T14:45:01;23.80;49.60
52669;DHT22;59898;52.786;6.892;2023-07-13T14:48:23;23.90;49.90
52669;DHT22;59898;52.786;6.892;2023-07-13T14:51:44;24.00;49.10
52669;DHT22;59898;52.786;6.892;2023-07-13T14:55:12;23.90;49.70
52669;DHT22;59898;52.786;6.892;2023-07-13T14:58:33;24.00;49.50
52669;DHT22;59898;52.786;6.892;2023-07-13T15:01:53;24.00;49.40
52669;DHT22;59898;52.786;6.892;2023-07-13T15:05:17;24.10;48.80
52669;DHT22;59898;52.786;6.892;2023-07-13T15:08:39;24.00;47.40
52669;DHT22;59898;52.786;6.892;2023-07-13T15:12:01;23.90;47.70
52669;DHT22;59898;52.786;6.892;2023-07-13T15:15:21;23.90;47.90
52669;DHT22;59898;52.786;6.892;2023-07-13T15:18:43;23.80;47.20
52669;DHT22;59898;52.786;6.892;2023-07-13T15:22:04;23.70;47.60
52669;DHT22;59898;52.786;6.892;2023-07-13T15:25:27;23.70;47.60
52669;DHT22;59898;52.786;6.892;2023-07-13T15:28:48;23.60;47.20
52669;DHT22;59898;52.786;6.892;2023-07-13T15:32:13;23.60;47.30
52669;DHT22;59898;52.786;6.892;2023-07-13T15:35:34;23.60;47.30
52669;DHT22;59898;52.786;6.892;2023-07-13T15:38:55;23.50;47.90
52669;DHT22;59898;52.786;6.892;2023-07-13T15:42:18;23.50;48.40
52669;DHT22;59898;52.786;6.892;2023-07-13T15:45:40;23.50;49.30
52669;DHT22;59898;52.786;6.892;2023-07-13T15:49:00;23.60;50.00
52669;DHT22;59898;52.786;6.892;2023-07-13T15:52:24;23.60;50.20
52669;DHT22;59898;52.786;6.892;2023-07-13T15:55:45;23.70;50.30
52669;DHT22;59898;52.786;6.892;2023-07-13T15:59:05;23.70;49.80
52669;DHT22;59898;52.786;6.892;2023-07-13T16:02:29;23.60;48.40
52669;DHT22;59898;52.786;6.892;2023-07-13T16:05:51;23.50;48.20
52669;DHT22;59898;52.786;6.892;2023-07-13T16:09:19;23.40;47.20
52669;DHT22;59898;52.786;6.892;2023-07-13T16:12:42;23.30;47.30
52669;DHT22;59898;52.786;6.892;2023-07-13T16:16:09;23.20;48.00
52669;DHT22;59898;52.786;6.892;2023-07-13T16:19:30;23.20;48.30
52669;DHT22;59898;52.786;6.892;2023-07-13T16:22:53;23.30;48.70
52669;DHT22;59898;52.786;6.892;2023-07-13T16:29:48;23.40;48.60
52669;DHT22;59898;52.786;6.892;2023-07-13T16:33:08;23.40;48.80
52669;DHT22;59898;52.786;6.892;2023-07-13T16:36:29;23.30;49.20
52669;DHT22;59898;52.786;6.892;2023-07-13T16:39:52;23.30;49.20
52669;DHT22;59898;52.786;6.892;2023-07-13T16:43:15;23.30;49.50
52669;DHT22;59898;52.786;6.892;2023-07-13T16:46:38;23.20;50.20
52669;DHT22;59898;52.786;6.892;2023-07-13T16:49:59;23.20;50.30
52669;DHT22;59898;52.786;6.892;2023-07-13T16:53:27;23.10;50.80
52669;DHT22;59898;52.786;6.892;2023-07-13T16:56:49;23.00;51.40
52669;DHT22;59898;52.786;6.892;2023-07-13T17:03:39;22.80;51.90
52669;DHT22;59898;52.786;6.892;2023-07-13T17:06:59;22.80;52.10
52669;DHT22;59898;52.786;6.892;2023-07-13T17:10:21;22.70;52.60
52669;DHT22;59898;52.786;6.892;2023-07-13T17:13:43;22.60;52.70
52669;DHT22;59898;52.786;6.892;2023-07-13T17:17:14;22.60;52.80
52669;DHT22;59898;52.786;6.892;2023-07-13T17:20:37;22.60;52.50
52669;DHT22;59898;52.786;6.892;2023-07-13T17:24:11;22.70;52.50
52669;DHT22;59898;52.786;6.892;2023-07-13T17:27:34;22.80;52.30
52669;DHT22;59898;52.786;6.892;2023-07-13T17:30:55;22.80;52.80
52669;DHT22;59898;52.786;6.892;2023-07-13T17:34:18;22.70;53.50
52669;DHT22;59898;52.786;6.892;2023-07-13T17:37:40;22.70;53.70
52669;DHT22;59898;52.786;6.892;2023-07-13T17:41:01;22.60;54.00
52669;DHT22;59898;52.786;6.892;2023-07-13T17:44:21;22.60;54.20
52669;DHT22;59898;52.786;6.892;2023-07-13T17:47:42;22.60;54.60
52669;DHT22;59898;52.786;6.892;2023-07-13T17:51:03;22.60;54.70
52669;DHT22;59898;52.786;6.892;2023-07-13T17:54:26;22.60;54.90
52669;DHT22;59898;52.786;6.892;2023-07-13T17:57:48;22.50;54.70
52669;DHT22;59898;52.786;6.892;2023-07-13T18:01:12;22.40;55.30
52669;DHT22;59898;52.786;6.892;2023-07-13T18:04:33;22.40;55.50
52669;DHT22;59898;52.786;6.892;2023-07-13T18:07:57;22.40;55.80
52669;DHT22;59898;52.786;6.892;2023-07-13T18:11:18;22.30;56.10
52669;DHT22;59898;52.786;6.892;2023-07-13T18:14:40;22.20;56.50
52669;DHT22;59898;52.786;6.892;2023-07-13T18:18:01;22.20;56.90
52669;DHT22;59898;52.786;6.892;2023-07-13T18:21:24;22.20;56.80
52669;DHT22;59898;52.786;6.892;2023-07-13T18:24:46;22.10;57.00
52669;DHT22;59898;52.786;6.892;2023-07-13T18:28:07;22.10;57.10
52669;DHT22;59898;52.786;6.892;2023-07-13T18:31:33;22.10;57.30
52669;DHT22;59898;52.786;6.892;2023-07-13T18:34:55;22.10;57.40
52669;DHT22;59898;52.786;6.892;2023-07-13T18:38:21;22.00;57.50
52669;DHT22;59898;52.786;6.892;2023-07-13T18:41:43;22.00;57.70
52669;DHT22;59898;52.786;6.892;2023-07-13T18:45:06;21.90;58.00
52669;DHT22;59898;52.786;6.892;2023-07-13T18:48:28;21.80;58.10
52669;DHT22;59898;52.786;6.892;2023-07-13T18:51:52;21.70;58.40
52669;DHT22;59898;52.786;6.892;2023-07-13T18:55:18;21.60;58.40
52669;DHT22;59898;52.786;6.892;2023-07-13T18:58:39;21.60;58.70
52669;DHT22;59898;52.786;6.892;2023-07-13T19:02:00;21.60;58.90
52669;DHT22;59898;52.786;6.892;2023-07-13T19:05:24;21.50;59.30
52669;DHT22;59898;52.786;6.892;2023-07-13T19:08:45;21.50;59.30
52669;DHT22;59898;52.786;6.892;2023-07-13T19:12:19;21.40;59.50
52669;DHT22;59898;52.786;6.892;2023-07-13T19:15:41;21.40;59.80
52669;DHT22;59898;52.786;6.892;2023-07-13T19:19:10;21.30;59.90
52669;DHT22;59898;52.786;6.892;2023-07-13T19:22:33;21.30;60.00
52669;DHT22;59898;52.786;6.892;2023-07-13T19:25:58;21.20;60.20
52669;DHT22;59898;52.786;6.892;2023-07-13T19:29:23;21.10;60.30
52669;DHT22;59898;52.786;6.892;2023-07-13T19:32:45;21.10;60.50
52669;DHT22;59898;52.786;6.892;2023-07-13T19:36:11;21.00;60.60
52669;DHT22;59898;52.786;6.892;2023-07-13T19:39:39;20.90;60.80
52669;DHT22;59898;52.786;6.892;2023-07-13T19:43:01;20.80;61.10
52669;DHT22;59898;52.786;6.892;2023-07-13T19:46:30;20.70;61.50
52669;DHT22;59898;52.786;6.892;2023-07-13T19:49:54;20.50;61.90
52669;DHT22;59898;52.786;6.892;2023-07-13T19:53:17;20.50;62.00
52669;DHT22;59898;52.786;6.892;2023-07-13T19:56:40;20.40;62.20
52669;DHT22;59898;52.786;6.892;2023-07-13T20:00:01;20.40;62.10
52669;DHT22;59898;52.786;6.892;2023-07-13T20:03:23;20.30;62.30
52669;DHT22;59898;52.786;6.892;2023-07-13T20:06:44;20.20;62.60
52669;DHT22;59898;52.786;6.892;2023-07-13T20:10:23;20.20;62.80
52669;DHT22;59898;52.786;6.892;2023-07-13T20:13:44;20.20;63.20
52669;DHT22;59898;52.786;6.892;2023-07-13T20:17:20;20.10;63.00
52669;DHT22;59898;52.786;6.892;2023-07-13T20:20:43;20.10;63.20
52669;DHT22;59898;52.786;6.892;2023-07-13T20:24:15;20.10;63.30
52669;DHT22;59898;52.786;6.892;2023-07-13T20:27:36;20.00;63.40
52669;DHT22;59898;52.786;6.892;2023-07-13T20:30:58;20.00;63.50
52669;DHT22;59898;52.786;6.892;2023-07-13T20:34:21;20.00;63.60
52669;DHT22;59898;52.786;6.892;2023-07-13T20:37:43;19.90;64.00
52669;DHT22;59898;52.786;6.892;2023-07-13T20:41:08;19.90;64.00
52669;DHT22;59898;52.786;6.892;2023-07-13T20:44:29;19.80;63.90
52669;DHT22;59898;52.786;6.892;2023-07-13T20:47:51;19.80;64.10
52669;DHT22;59898;52.786;6.892;2023-07-13T20:51:16;19.70;64.20
52669;DHT22;59898;52.786;6.892;2023-07-13T20:54:37;19.70;64.40
52669;DHT22;59898;52.786;6.892;2023-07-13T20:57:58;19.70;64.60
52669;DHT22;59898;52.786;6.892;2023-07-13T21:04:41;19.60;65.00
52669;DHT22;59898;52.786;6.892;2023-07-13T21:08:02;19.50;65.20
52669;DHT22;59898;52.786;6.892;2023-07-13T21:11:23;19.50;65.40
52669;DHT22;59898;52.786;6.892;2023-07-13T21:14:44;19.40;65.60
52669;DHT22;59898;52.786;6.892;2023-07-13T21:18:05;19.40;65.90
52669;DHT22;59898;52.786;6.892;2023-07-13T21:21:28;19.40;66.00
52669;DHT22;59898;52.786;6.892;2023-07-13T21:24:49;19.30;66.30
52669;DHT22;59898;52.786;6.892;2023-07-13T21:28:10;19.30;66.40
52669;DHT22;59898;52.786;6.892;2023-07-13T21:31:33;19.20;66.50
52669;DHT22;59898;52.786;6.892;2023-07-13T21:34:55;19.20;66.90
52669;DHT22;59898;52.786;6.892;2023-07-13T21:38:21;19.10;67.30
52669;DHT22;59898;52.786;6.892;2023-07-13T21:41:43;19.00;67.80
52669;DHT22;59898;52.786;6.892;2023-07-13T21:45:20;18.90;68.00
52669;DHT22;59898;52.786;6.892;2023-07-13T21:48:41;18.80;68.50
52669;DHT22;59898;52.786;6.892;2023-07-13T21:52:12;18.70;68.60
52669;DHT22;59898;52.786;6.892;2023-07-13T21:55:35;18.60;69.10
52669;DHT22;59898;52.786;6.892;2023-07-13T21:58:55;18.60;69.20
52669;DHT22;59898;52.786;6.892;2023-07-13T22:02:16;18.60;69.50